Time;durP1;ratioP1;P1;durP2;ratioP2;P2;SDS_P1;SDS_P2;PMS_P1;PMS_P2;Temp;Humidity;BMP_temperature;BMP_pressure;BME280_temperature;BME280_humidity;BME280_pressure;Samples;Min_cycle;Max_cycle;Signal;HPM_P1;HPM_P2
2023/08/02 00:00:03;;;;;;;13.95;12.55;;;25.20;99.90;;;;;;5133526;28;20011;-91
2023/08/02 00:02:38;;;;;;;15.30;13.05;;;25.10;99.90;;;;;;5130486;28;20019;-91
2023/08/02 00:05:07;;;;;;;15.50;12.88;;;25.10;99.90;;;;;;5110282;28;20093;-91
2023/08/02 00:07:37;;;;;;;14.88;13.45;;;25.00;99.90;;;;;;5093380;28;20020;-92
2023/08/02 00:10:04;;;;;;;14.18;12.70;;;25.00;99.90;;;;;;5110199;28;20027;-91
2023/08/02 00:12:30;;;;;;;14.07;12.65;;;25.00;99.90;;;;;;5093113;28;20032;-92
2023/08/02 00:14:57;;;;;;;13.55;12.35;;;24.90;99.90;;;;;;5110316;28;20085;-91
2023/08/02 00:17:23;;;;;;;13.20;12.00;;;24.90;99.90;;;;;;5092732;28;20055;-90
2023/08/02 00:19:50;;;;;;;16.70;12.90;;;24.90;99.90;;;;;;5130492;27;20027;-91
2023/08/02 00:22:16;;;;;;;17.80;12.95;;;24.80;99.90;;;;;;5113430;28;20027;-90
2023/08/02 00:24:43;;;;;;;12.60;11.32;;;24.80;99.90;;;;;;5130217;27;20028;-90
2023/08/02 00:27:09;;;;;;;13.43;12.07;;;24.80;99.90;;;;;;5113518;28;20027;-91
2023/08/02 00:29:36;;;;;;;16.58;11.82;;;24.70;99.90;;;;;;5117083;27;20483;-91
2023/08/02 00:32:03;;;;;;;15.05;11.50;;;24.70;99.90;;;;;;5099638;28;20024;-91
2023/08/02 00:34:29;;;;;;;12.93;11.65;;;24.70;99.90;;;;;;5116529;28;20106;-90
2023/08/02 00:36:55;;;;;;;14.30;12.10;;;24.60;99.90;;;;;;5099299;28;20028;-91
2023/08/02 00:39:23;;;;;;;12.52;11.38;;;24.60;99.90;;;;;;5115595;28;20106;-90
2023/08/02 00:41:49;;;;;;;13.35;11.95;;;24.70;99.90;;;;;;5099410;28;20028;-91
2023/08/02 00:44:16;;;;;;;13.02;11.73;;;24.60;99.90;;;;;;5095771;28;20043;-91
2023/08/02 00:46:42;;;;;;;11.23;10.13;;;24.60;99.90;;;;;;5113054;28;20035;-90
2023/08/02 00:49:10;;;;;;;12.00;10.75;;;24.60;99.90;;;;;;5095783;28;20083;-92
2023/08/02 00:51:36;;;;;;;14.30;12.55;;;24.50;99.90;;;;;;5112792;28;20016;-92
2023/08/02 00:54:05;;;;;;;15.05;11.43;;;24.40;99.90;;;;;;5096180;28;20032;-92
2023/08/02 00:56:32;;;;;;;11.80;10.38;;;24.40;99.90;;;;;;5115891;28;20031;-93
2023/08/02 00:58:59;;;;;;;13.82;11.15;;;24.40;99.90;;;;;;5115987;28;20051;-91
2023/08/02 01:01:25;;;;;;;12.20;10.77;;;24.40;99.90;;;;;;5099363;28;20027;-92
2023/08/02 01:03:53;;;;;;;12.48;10.52;;;24.40;99.90;;;;;;5115914;28;20027;-92
2023/08/02 01:06:33;;;;;;;14.73;11.88;;;24.20;99.90;;;;;;5099101;28;20084;-91
2023/08/02 01:09:06;;;;;;;11.73;10.50;;;24.20;99.90;;;;;;5098683;28;20218;-91
2023/08/02 01:11:44;;;;;;;12.05;10.30;;;24.20;99.90;;;;;;5115897;28;20027;-93
2023/08/02 01:14:17;;;;;;;12.07;10.88;;;24.20;99.90;;;;;;5115880;28;20422;-93
2023/08/02 01:16:44;;;;;;;14.98;10.38;;;24.30;99.90;;;;;;5115185;28;20050;-92
2023/08/02 01:19:12;;;;;;;11.82;10.07;;;24.30;99.90;;;;;;5098647;28;20031;-92
2023/08/02 01:21:38;;;;;;;13.50;10.10;;;24.40;99.90;;;;;;5098638;28;20134;-92
2023/08/02 01:24:08;;;;;;;16.77;10.30;;;24.40;99.90;;;;;;5095036;28;20051;-93
2023/08/02 01:26:38;;;;;;;12.70;10.00;;;24.40;99.90;;;;;;5095293;28;20055;-91
2023/08/02 01:29:12;;;;;;;11.30;9.88;;;24.30;99.90;;;;;;5078039;28;20107;-92
2023/08/02 01:31:41;;;;;;;15.38;9.88;;;24.20;99.90;;;;;;5095134;28;20031;-93
2023/08/02 01:34:09;;;;;;;11.25;10.10;;;24.20;99.90;;;;;;5086878;28;20450;-92
2023/08/02 01:36:36;;;;;;;11.23;9.93;;;24.10;99.90;;;;;;5094723;28;20485;-92
2023/08/02 01:39:02;;;;;;;10.93;9.18;;;24.10;99.90;;;;;;5105182;28;20027;-91
2023/08/02 01:41:29;;;;;;;13.75;10.07;;;24.10;99.90;;;;;;5097466;28;20557;-93
2023/08/02 01:43:56;;;;;;;16.60;10.30;;;24.10;99.90;;;;;;5098374;28;20024;-93
2023/08/02 01:46:22;;;;;;;13.82;10.60;;;24.00;99.90;;;;;;5098268;28;20115;-92
2023/08/02 01:48:49;;;;;;;11.68;9.80;;;24.00;99.90;;;;;;5097939;28;20031;-91
2023/08/02 01:51:16;;;;;;;11.93;10.05;;;24.00;99.90;;;;;;5094805;28;20026;-92
2023/08/02 01:53:42;;;;;;;13.52;9.80;;;23.90;99.90;;;;;;5115416;28;20496;-91
2023/08/02 01:56:09;;;;;;;14.05;10.27;;;23.90;99.90;;;;;;5098348;28;20031;-93
2023/08/02 01:58:35;;;;;;;11.57;10.35;;;23.90;99.90;;;;;;5103971;28;20031;-92
2023/08/02 02:01:01;;;;;;;13.10;9.75;;;23.90;99.90;;;;;;5114372;28;20031;-93
2023/08/02 02:03:28;;;;;;;13.48;10.05;;;23.90;99.90;;;;;;5119157;28;20038;-92
2023/08/02 02:05:56;;;;;;;14.02;10.57;;;23.90;99.90;;;;;;5114611;28;20028;-91
2023/08/02 02:08:23;;;;;;;14.00;9.68;;;23.80;99.90;;;;;;5094350;28;20051;-92
2023/08/02 02:10:54;;;;;;;16.92;9.68;;;23.90;99.90;;;;;;5094326;28;20031;-92
2023/08/02 02:13:23;;;;;;;13.70;10.20;;;23.90;99.90;;;;;;5094226;28;20038;-91
2023/08/02 02:15:49;;;;;;;11.88;10.02;;;23.90;99.90;;;;;;5111170;28;20020;-92
2023/08/02 02:18:16;;;;;;;14.45;9.52;;;24.00;99.90;;;;;;5093777;28;20044;-92
2023/08/02 02:20:43;;;;;;;14.52;9.35;;;23.90;99.90;;;;;;5097638;28;20020;-92
2023/08/02 02:23:09;;;;;;;10.45;9.02;;;23.90;99.90;;;;;;5114560;28;20031;-92
2023/08/02 02:25:37;;;;;;;12.40;9.65;;;23.80;99.90;;;;;;5093932;28;20046;-91
2023/08/02 02:28:04;;;;;;;15.05;10.20;;;23.80;99.90;;;;;;5077134;28;20027;-92
2023/08/02 02:30:31;;;;;;;11.23;10.20;;;23.80;99.90;;;;;;5077235;28;20032;-91
2023/08/02 02:32:57;;;;;;;15.55;10.20;;;23.90;99.90;;;;;;5077152;28;20066;-92
2023/08/02 02:35:25;;;;;;;13.35;10.02;;;23.90;99.90;;;;;;5080021;28;20019;-92
2023/08/02 02:37:52;;;;;;;13.23;9.30;;;23.90;99.90;;;;;;5097200;28;20027;-91
2023/08/02 02:40:19;;;;;;;13.65;9.57;;;23.90;99.90;;;;;;5093702;28;20550;-92
2023/08/02 02:42:45;;;;;;;12.77;9.13;;;23.90;99.90;;;;;;5088666;28;20032;-93
2023/08/02 02:45:11;;;;;;;13.15;10.55;;;23.90;99.90;;;;;;5085158;28;20544;-92
2023/08/02 02:47:38;;;;;;;16.55;9.43;;;23.80;99.90;;;;;;5114080;28;20031;-91
2023/08/02 02:50:05;;;;;;;12.73;9.82;;;23.90;99.90;;;;;;5096931;28;20051;-91
2023/08/02 02:52:34;;;;;;;11.10;9.45;;;23.80;99.90;;;;;;5097012;28;20081;-91
2023/08/02 02:55:01;;;;;;;10.93;9.73;;;23.80;99.90;;;;;;5096671;28;20476;-91
2023/08/02 02:57:27;;;;;;;12.05;9.23;;;23.80;99.90;;;;;;5085794;28;20048;-92
2023/08/02 02:59:54;;;;;;;12.38;9.88;;;23.90;99.90;;;;;;5076545;28;20492;-92
2023/08/02 03:02:21;;;;;;;11.57;9.90;;;23.90;99.90;;;;;;5097228;28;20059;-93
2023/08/02 03:04:47;;;;;;;11.40;10.00;;;23.90;99.90;;;;;;5094893;28;20021;-92
2023/08/02 03:07:14;;;;;;;10.65;9.55;;;23.90;99.90;;;;;;5113866;28;20032;-93
2023/08/02 03:09:40;;;;;;;10.85;8.95;;;23.80;99.90;;;;;;5096911;28;20114;-92
2023/08/02 03:12:07;;;;;;;11.65;9.75;;;23.80;99.90;;;;;;5113588;28;20039;-93
2023/08/02 03:14:34;;;;;;;13.98;9.73;;;23.70;99.90;;;;;;5096535;28;20020;-92
2023/08/02 03:17:00;;;;;;;12.65;10.57;;;23.70;99.90;;;;;;5096150;28;20435;-92
2023/08/02 03:19:27;;;;;;;17.98;10.52;;;23.80;99.90;;;;;;5096734;28;20023;-93
2023/08/02 03:21:53;;;;;;;11.18;9.00;;;23.80;99.90;;;;;;5096464;28;20480;-91
2023/08/02 03:24:20;;;;;;;12.60;10.35;;;23.80;99.90;;;;;;5096587;28;20038;-91
2023/08/02 03:26:46;;;;;;;10.48;9.45;;;23.80;99.90;;;;;;5113252;28;20104;-92
2023/08/02 03:29:13;;;;;;;10.75;9.63;;;23.80;99.90;;;;;;5092124;28;20038;-91
2023/08/02 03:31:39;;;;;;;13.02;10.38;;;23.80;99.90;;;;;;5089736;28;20552;-92
2023/08/02 03:34:06;;;;;;;11.02;10.02;;;23.90;99.90;;;;;;5083378;28;20472;-91
2023/08/02 03:36:32;;;;;;;11.48;10.38;;;23.90;99.90;;;;;;5113372;28;20499;-92
2023/08/02 03:38:59;;;;;;;13.77;10.43;;;23.90;99.90;;;;;;5096387;28;20024;-91
2023/08/02 03:41:26;;;;;;;13.77;10.80;;;23.90;99.90;;;;;;5113382;28;20480;-92
2023/08/02 03:43:52;;;;;;;14.98;11.25;;;23.90;99.90;;;;;;5096387;28;20118;-92
2023/08/02 03:46:18;;;;;;;19.20;13.65;;;24.00;99.90;;;;;;5096387;28;20027;-91
2023/08/02 03:48:44;;;;;;;16.65;12.95;;;24.00;99.90;;;;;;5093095;28;20024;-93
2023/08/02 03:51:11;;;;;;;17.85;13.45;;;24.00;99.90;;;;;;5093651;28;20060;-91
2023/08/02 03:53:37;;;;;;;21.75;13.95;;;24.00;99.90;;;;;;5093068;28;20020;-92
2023/08/02 03:56:04;;;;;;;17.45;12.60;;;24.10;99.90;;;;;;5094876;28;20497;-91
2023/08/02 03:58:30;;;;;;;15.07;12.70;;;24.10;99.90;;;;;;5096342;28;20065;-91
2023/08/02 04:00:56;;;;;;;19.45;12.25;;;24.10;99.90;;;;;;5111516;28;20036;-93
2023/08/02 04:03:25;;;;;;;18.83;13.15;;;24.20;99.90;;;;;;5121883;28;20012;-93
2023/08/02 04:05:52;;;;;;;14.15;12.30;;;24.20;99.90;;;;;;5118551;28;20028;-92
2023/08/02 04:08:18;;;;;;;16.23;13.40;;;24.20;99.90;;;;;;5097106;28;20028;-92
2023/08/02 04:10:44;;;;;;;14.90;12.73;;;24.30;99.90;;;;;;5100006;28;20024;-93
2023/08/02 04:13:11;;;;;;;13.25;11.88;;;24.40;99.90;;;;;;5101466;28;20028;-92
2023/08/02 04:15:37;;;;;;;12.85;11.80;;;24.50;99.90;;;;;;5116907;28;20035;-92
2023/08/02 04:18:04;;;;;;;18.27;12.52;;;24.60;99.90;;;;;;5099535;28;20044;-92
2023/08/02 04:20:31;;;;;;;13.88;11.90;;;24.60;99.90;;;;;;5100035;28;20071;-93
2023/08/02 04:22:57;;;;;;;13.27;12.00;;;24.70;99.90;;;;;;5079379;28;20492;-92
2023/08/02 04:25:23;;;;;;;13.25;12.00;;;24.70;99.90;;;;;;5089325;28;20048;-92
2023/08/02 04:27:49;;;;;;;16.02;12.73;;;24.70;99.90;;;;;;5099817;28;20156;-93
2023/08/02 04:30:16;;;;;;;13.65;12.43;;;24.70;99.90;;;;;;5116162;28;20028;-92
2023/08/02 04:32:42;;;;;;;13.70;12.43;;;24.70;99.90;;;;;;5099811;28;20024;-91
2023/08/02 04:35:08;;;;;;;14.75;11.93;;;24.80;99.90;;;;;;5099700;28;20118;-93
2023/08/02 04:37:36;;;;;;;16.13;12.57;;;24.90;99.90;;;;;;5099345;28;20053;-92
2023/08/02 04:40:02;;;;;;;15.52;13.27;;;25.00;99.90;;;;;;5099456;28;20035;-91
2023/08/02 04:42:29;;;;;;;15.27;13.15;;;25.10;99.90;;;;;;5099398;28;20028;-92
2023/08/02 04:44:58;;;;;;;14.55;13.05;;;25.20;99.90;;;;;;5099662;28;20069;-94
2023/08/02 04:47:24;;;;;;;15.68;14.25;;;25.40;99.90;;;;;;5090751;28;20076;-93
2023/08/02 04:49:50;;;;;;;17.50;15.40;;;25.60;99.90;;;;;;5098954;28;20031;-94
2023/08/02 04:52:17;;;;;;;17.48;15.70;;;25.70;99.90;;;;;;5099353;28;20028;-92
2023/08/02 04:54:43;;;;;;;17.13;15.43;;;25.90;99.90;;;;;;5099039;28;20015;-94
2023/08/02 04:57:10;;;;;;;17.27;15.50;;;26.30;99.90;;;;;;5098940;28;20055;-91
2023/08/02 04:59:36;;;;;;;18.30;16.70;;;26.90;99.90;;;;;;5098953;28;20544;-93
2023/08/02 05:02:03;;;;;;;20.65;18.90;;;27.70;99.90;;;;;;5099189;28;20046;-93
2023/08/02 05:04:29;;;;;;;20.95;19.17;;;28.50;99.90;;;;;;5095622;28;20028;-94
2023/08/02 05:06:55;;;;;;;22.63;20.58;;;29.70;99.90;;;;;;5095551;28;20028;-92
2023/08/02 05:09:25;;;;;;;25.27;23.25;;;30.60;99.90;;;;;;5115682;28;20046;-93
2023/08/02 05:11:51;;;;;;;25.92;24.08;;;31.20;99.90;;;;;;5115713;28;20136;-92
2023/08/02 05:14:18;;;;;;;27.13;25.00;;;31.40;99.90;;;;;;5098724;28;20157;-93
2023/08/02 05:16:45;;;;;;;27.95;25.67;;;32.00;99.90;;;;;;5098849;28;20055;-92
2023/08/02 05:19:11;;;;;;;28.27;26.05;;;32.50;99.90;;;;;;5098969;28;20032;-93
2023/08/02 05:21:37;;;;;;;28.45;26.40;;;32.60;99.90;;;;;;5098837;28;20106;-92
2023/08/02 05:24:04;;;;;;;29.00;26.90;;;33.30;99.90;;;;;;5098704;28;20540;-92
2023/08/02 05:26:30;;;;;;;29.58;27.42;;;33.80;99.90;;;;;;5115672;28;20118;-91
2023/08/02 05:28:56;;;;;;;29.13;27.05;;;33.80;99.90;;;;;;5099333;28;20020;-93
2023/08/02 05:31:22;;;;;;;28.92;26.92;;;34.00;99.90;;;;;;5094977;28;20032;-93
2023/08/02 05:33:52;;;;;;;29.15;27.05;;;33.80;99.90;;;;;;5078194;28;20020;-94
2023/08/02 05:36:18;;;;;;;28.70;26.52;;;33.90;99.90;;;;;;5094933;28;20428;-93
2023/08/02 05:38:44;;;;;;;28.77;26.67;;;33.80;99.90;;;;;;5086212;28;20114;-91
2023/08/02 05:41:11;;;;;;;28.60;26.15;;;33.90;99.90;;;;;;5095114;28;20036;-93
2023/08/02 05:43:41;;;;;;;28.08;26.08;;;32.60;99.90;;;;;;5096372;28;20028;-94
2023/08/02 05:46:08;;;;;;;27.67;25.50;;;30.90;99.90;;;;;;5114879;28;20468;-92
2023/08/02 05:48:34;;;;;;;27.63;25.63;;;29.60;99.90;;;;;;5094821;28;20028;-92
2023/08/02 05:51:00;;;;;;;28.77;26.42;;;28.90;99.90;;;;;;5094643;28;20032;-93
2023/08/02 05:53:27;;;;;;;28.25;26.13;;;28.60;99.90;;;;;;5078091;28;20024;-91
2023/08/02 05:55:55;;;;;;;27.75;25.58;;;28.10;99.90;;;;;;5101580;28;20165;-93
2023/08/02 05:58:22;;;;;;;27.98;25.65;;;28.00;99.90;;;;;;5114711;28;20035;-92
2023/08/02 06:00:51;;;;;;;28.33;26.05;;;27.90;99.90;;;;;;5115409;28;20034;-93
2023/08/02 06:03:17;;;;;;;28.20;25.73;;;27.90;99.90;;;;;;5118232;28;20025;-92
2023/08/02 06:05:43;;;;;;;24.90;23.30;;;28.90;99.90;;;;;;5103647;28;20035;-93
2023/08/02 06:08:10;;;;;;;26.40;24.50;;;30.60;99.90;;;;;;5114774;28;20028;-92
2023/08/02 06:10:36;;;;;;;27.33;25.33;;;32.00;99.90;;;;;;5097701;28;20027;-92
2023/08/02 06:13:02;;;;;;;26.77;24.88;;;32.10;99.90;;;;;;5114623;28;20023;-91
2023/08/02 06:15:29;;;;;;;27.30;25.20;;;32.60;99.90;;;;;;5094175;28;20048;-93
2023/08/02 06:17:55;;;;;;;26.70;24.80;;;32.30;99.90;;;;;;5097137;28;20047;-93
2023/08/02 06:20:21;;;;;;;26.85;24.90;;;31.40;99.90;;;;;;5097398;28;20030;-93
2023/08/02 06:22:48;;;;;;;27.98;25.88;;;30.60;99.90;;;;;;5114320;28;20031;-92
2023/08/02 06:25:14;;;;;;;27.88;25.80;;;30.10;99.90;;;;;;5098013;28;20476;-93
2023/08/02 06:27:40;;;;;;;27.42;25.52;;;29.70;99.90;;;;;;5093722;28;20131;-92
2023/08/02 06:30:08;;;;;;;25.95;24.15;;;30.00;99.90;;;;;;5077253;28;20031;-92
2023/08/02 06:32:34;;;;;;;26.33;24.52;;;31.20;99.90;;;;;;5109952;28;20464;-93
2023/08/02 06:35:04;;;;;;;26.73;24.75;;;30.50;99.90;;;;;;5097147;28;20030;-92
2023/08/02 06:37:30;;;;;;;26.65;24.83;;;30.70;99.90;;;;;;5096908;28;20131;-93
2023/08/02 06:39:59;;;;;;;27.83;25.67;;;31.70;99.90;;;;;;5097266;28;20027;-93
2023/08/02 06:42:26;;;;;;;29.60;27.38;;;31.90;99.90;;;;;;5113907;28;20031;-93
2023/08/02 06:44:52;;;;;;;28.02;25.98;;;32.00;99.90;;;;;;5097122;28;20099;-92
2023/08/02 06:47:18;;;;;;;27.55;25.52;;;31.70;99.90;;;;;;5114268;28;20130;-92
2023/08/02 06:49:45;;;;;;;27.95;25.50;;;30.80;99.90;;;;;;5093561;28;20024;-93
2023/08/02 06:52:11;;;;;;;26.80;24.92;;;30.40;99.90;;;;;;5093776;28;20036;-92
2023/08/02 06:54:37;;;;;;;27.00;25.05;;;29.80;99.90;;;;;;5097227;28;20533;-93
2023/08/02 06:57:04;;;;;;;27.02;25.05;;;30.10;99.90;;;;;;5114010;28;20091;-94
2023/08/02 07:02:12;;;;;;;27.10;25.10;;;31.40;99.90;;;;;;6027368;22;20016;-92
2023/08/02 07:46:55;;;;;;;30.13;28.02;;;33.10;99.90;;;;;;5383583;22;20041;-94
2023/08/02 07:49:27;;;;;;;30.63;28.25;;;32.10;99.90;;;;;;5042620;28;20068;-93
2023/08/02 07:51:55;;;;;;;28.80;26.67;;;32.50;99.90;;;;;;5030924;28;20375;-87
2023/08/02 07:54:21;;;;;;;28.63;26.67;;;31.50;99.90;;;;;;4999485;28;20038;-85
2023/08/02 07:56:48;;;;;;;28.77;26.88;;;31.10;99.90;;;;;;5036059;28;20044;-89
2023/08/02 08:02:00;;;;;;;30.02;27.95;;;32.50;99.90;;;;;;4982336;28;20046;-91
2023/08/02 11:10:28;;;;;;;27.02;24.63;;;31.90;99.90;;;;;;5027794;28;20041;-92
2023/08/02 11:12:56;;;;;;;26.77;24.90;;;31.70;99.90;;;;;;4994492;28;20027;-93
2023/08/02 11:15:25;;;;;;;27.20;25.08;;;31.90;99.90;;;;;;4996389;28;20030;-91
2023/08/02 11:17:57;;;;;;;27.55;25.38;;;32.40;99.90;;;;;;4997276;28;20041;-94
2023/08/02 11:20:28;;;;;;;27.05;25.13;;;32.10;99.90;;;;;;5007797;28;20033;-93
2023/08/02 11:57:36;;;;;;;26.77;24.73;;;31.70;99.90;;;;;;6040703;23;20234;-90
2023/08/02 13:05:08;;;;;;;;;;;;;;;;;;;;;
2023/08/02 13:08:14;;;;;;;;;;;;;;;;;;;;;
2023/08/02 13:11:07;;;;;;;26.88;24.92;;;30.70;99.90;;;;;;4871587;29;20067;-94
2023/08/02 13:14:25;;;;;;;;;;;;;;;;;;;;;
2023/08/02 13:17:05;;;;;;;26.02;24.02;;;30.90;99.90;;;;;;5012568;23;20050;-94
2023/08/02 13:19:34;;;;;;;26.90;24.45;;;31.50;99.90;;;;;;4977885;28;20118;-94
2023/08/02 13:22:54;;;;;;;26.95;25.00;;;31.90;99.90;;;;;;4982587;28;20022;-94
2023/08/02 13:28:23;;;;;;;25.60;23.90;;;32.40;99.90;;;;;;5247602;23;19925;-94
2023/08/02 13:34:25;;;;;;;26.80;24.80;;;31.90;99.90;;;;;;5751758;23;20093;-94
2023/08/02 13:36:56;;;;;;;26.23;24.33;;;32.00;99.90;;;;;;4973102;28;20484;-94
2023/08/02 13:39:29;;;;;;;26.83;24.63;;;32.20;99.90;;;;;;4964888;28;20436;-94
